Time;durP1;ratioP1;P1;durP2;ratioP2;P2;SDS_P1;SDS_P2;PMS_P1;PMS_P2;Temp;Humidity;BMP_temperature;BMP_pressure;BME280_temperature;BME280_humidity;BME280_pressure;Samples;Min_cycle;Max_cycle;Signal;HPM_P1;HPM_P2
2022/11/23 00:00:22;;;;;;;101.30;31.52;;;;;;;;;;5075226;28;20381;-75
2022/11/23 00:02:52;;;;;;;66.85;23.17;;;;;;;;;;5093313;28;20050;-77
2022/11/23 00:05:18;;;;;;;81.28;26.65;;;;;;;;;;5092987;28;20027;-76
2022/11/23 00:07:43;;;;;;;77.03;27.08;;;;;;;;;;5093059;28;20404;-76
2022/11/23 00:10:09;;;;;;;88.70;31.25;;;;;;;;;;5074737;28;20089;-76
2022/11/23 00:12:34;;;;;;;57.33;20.67;;;;;;;;;;5092722;28;20044;-77
2022/11/23 00:15:00;;;;;;;99.65;32.83;;;;;;;;;;5093145;28;20032;-75
2022/11/23 00:17:25;;;;;;;111.18;31.90;;;;;;;;;;5093140;28;20461;-76
2022/11/23 00:19:51;;;;;;;106.55;33.85;;;;;;;;;;5074625;28;20127;-76
2022/11/23 00:22:16;;;;;;;63.33;22.85;;;;;;;;;;5092951;28;20050;-76
2022/11/23 00:24:41;;;;;;;87.00;26.67;;;;;;;;;;5093091;28;20039;-75
2022/11/23 00:27:07;;;;;;;84.68;29.10;;;;;;;;;;5093463;28;20558;-77
2022/11/23 00:29:32;;;;;;;98.35;31.10;;;;;;;;;;5093296;28;20035;-73
2022/11/23 00:31:58;;;;;;;68.03;23.88;;;;;;;;;;5093692;28;20028;-76
2022/11/23 00:34:23;;;;;;;97.35;30.75;;;;;;;;;;5092891;28;20028;-76
2022/11/23 00:36:50;;;;;;;45.08;16.98;;;;;;;;;;5093163;28;20054;-75
2022/11/23 00:39:15;;;;;;;38.45;17.23;;;;;;;;;;5092901;28;20024;-74
2022/11/23 00:41:41;;;;;;;108.32;33.05;;;;;;;;;;5092921;28;20035;-76
2022/11/23 00:44:06;;;;;;;102.15;30.73;;;;;;;;;;5072227;28;20036;-73
2022/11/23 00:46:32;;;;;;;103.30;32.15;;;;;;;;;;5091575;28;20430;-76
2022/11/23 00:48:59;;;;;;;77.22;27.50;;;;;;;;;;5091362;28;20385;-76
2022/11/23 00:51:30;;;;;;;80.05;27.65;;;;;;;;;;5090952;28;20074;-75
2022/11/23 00:53:56;;;;;;;105.28;33.17;;;;;;;;;;5091436;28;20542;-73
2022/11/23 00:56:22;;;;;;;37.00;15.80;;;;;;;;;;5091477;28;20380;-74
2022/11/23 00:58:52;;;;;;;61.60;21.00;;;;;;;;;;5091455;28;20099;-76
2022/11/23 01:01:23;;;;;;;54.65;20.13;;;;;;;;;;5088876;28;20020;-73
2022/11/23 01:03:52;;;;;;;87.38;25.80;;;;;;;;;;5091517;28;20032;-73
2022/11/23 01:06:29;;;;;;;80.10;26.38;;;;;;;;;;5086982;28;20020;-71
2022/11/23 01:08:57;;;;;;;98.75;30.95;;;;;;;;;;5091305;28;20020;-75
2022/11/23 01:11:26;;;;;;;61.33;27.00;;;;;;;;;;5090945;28;20089;-69
2022/11/23 01:13:52;;;;;;;83.25;27.38;;;;;;;;;;5091488;28;20035;-78
2022/11/23 01:16:32;;;;;;;86.07;28.27;;;;;;;;;;5092590;28;20111;-77
2022/11/23 01:19:03;;;;;;;74.70;22.88;;;;;;;;;;5092783;28;20040;-70
2022/11/23 01:21:29;;;;;;;61.58;22.92;;;;;;;;;;5092526;28;20032;-75
2022/11/23 01:23:55;;;;;;;87.95;27.73;;;;;;;;;;5092489;28;20476;-73
2022/11/23 01:26:21;;;;;;;93.22;31.42;;;;;;;;;;5092496;28;20153;-77
2022/11/23 01:28:47;;;;;;;96.18;31.40;;;;;;;;;;5092388;28;20103;-76
2022/11/23 01:31:15;;;;;;;82.40;27.75;;;;;;;;;;5092435;28;20036;-77
2022/11/23 01:33:40;;;;;;;97.63;31.13;;;;;;;;;;5092201;28;20054;-76
2022/11/23 01:36:13;;;;;;;89.63;30.52;;;;;;;;;;5092564;28;20481;-77
2022/11/23 01:38:40;;;;;;;94.03;32.58;;;;;;;;;;5092458;28;20028;-79
2022/11/23 01:41:07;;;;;;;83.30;25.50;;;;;;;;;;5092351;28;20032;-78
2022/11/23 01:43:33;;;;;;;71.07;24.67;;;;;;;;;;5092124;28;20032;-75
2022/11/23 01:46:00;;;;;;;94.13;33.53;;;;;;;;;;5092101;28;20084;-65
2022/11/23 01:48:31;;;;;;;93.53;30.95;;;;;;;;;;5092321;28;20031;-77
2022/11/23 01:50:57;;;;;;;;;;;;;;;;;;5092724;28;20085;-71
2022/11/23 01:53:24;;;;;;;95.18;29.30;;;;;;;;;;5092137;28;19912;-76
2022/11/23 01:55:50;;;;;;;55.92;19.60;;;;;;;;;;5092108;28;20492;-76
2022/11/23 01:58:19;;;;;;;66.57;23.38;;;;;;;;;;5092095;28;20051;-77
2022/11/23 02:00:44;;;;;;;58.45;21.05;;;;;;;;;;5091969;28;20020;-77
2022/11/23 02:03:10;;;;;;;69.85;26.10;;;;;;;;;;5093592;28;20032;-67
2022/11/23 02:05:41;;;;;;;84.50;29.80;;;;;;;;;;5095996;28;20031;-68
2022/11/23 02:08:07;;;;;;;94.95;27.95;;;;;;;;;;5096058;28;20020;-67
2022/11/23 02:10:35;;;;;;;84.13;29.73;;;;;;;;;;5096044;28;20028;-67
2022/11/23 02:13:07;;;;;;;83.63;29.38;;;;;;;;;;5095714;28;20055;-69
2022/11/23 02:15:33;;;;;;;87.82;29.75;;;;;;;;;;5095592;28;20039;-73
2022/11/23 02:18:08;;;;;;;57.45;22.23;;;;;;;;;;5096078;28;20172;-69
2022/11/23 02:20:34;;;;;;;88.93;27.92;;;;;;;;;;5095982;28;20016;-78
2022/11/23 02:23:25;;;;;;;72.95;24.42;;;;;;;;;;5095609;28;20176;-70
2022/11/23 02:25:57;;;;;;;101.82;33.05;;;;;;;;;;5095629;28;20054;-68
2022/11/23 02:28:27;;;;;;;93.57;31.25;;;;;;;;;;5095612;28;20020;-67
2022/11/23 02:30:54;;;;;;;86.68;28.52;;;;;;;;;;5095610;28;20481;-70
2022/11/23 02:33:20;;;;;;;83.15;24.50;;;;;;;;;;5095609;28;20039;-67
2022/11/23 02:35:54;;;;;;;92.65;32.70;;;;;;;;;;5095448;28;20040;-68
2022/11/23 02:38:21;;;;;;;99.28;29.90;;;;;;;;;;5095658;28;20056;-67
2022/11/23 02:40:47;;;;;;;96.65;30.42;;;;;;;;;;5095386;28;20110;-67
2022/11/23 02:43:13;;;;;;;105.35;35.28;;;;;;;;;;5095184;28;20075;-67
2022/11/23 02:45:56;;;;;;;92.97;28.50;;;;;;;;;;5095275;28;20035;-67
2022/11/23 02:48:22;;;;;;;103.28;33.40;;;;;;;;;;5095313;28;20024;-67
2022/11/23 02:50:48;;;;;;;96.15;31.30;;;;;;;;;;5095387;28;20106;-67
2022/11/23 02:53:14;;;;;;;78.88;27.73;;;;;;;;;;5095009;28;20386;-67
2022/11/23 02:55:39;;;;;;;95.65;32.22;;;;;;;;;;5094976;28;20459;-66
2022/11/23 02:58:05;;;;;;;98.30;31.95;;;;;;;;;;5094816;28;20028;-68
2022/11/23 03:00:31;;;;;;;101.47;32.38;;;;;;;;;;5095031;28;20027;-67
2022/11/23 03:02:59;;;;;;;73.95;26.73;;;;;;;;;;5095028;28;20425;-66
2022/11/23 03:05:25;;;;;;;92.00;30.67;;;;;;;;;;5094915;28;20031;-67
2022/11/23 03:07:51;;;;;;;94.45;29.10;;;;;;;;;;5095042;28;20445;-67
2022/11/23 03:10:17;;;;;;;81.63;28.98;;;;;;;;;;5094887;28;20028;-67
2022/11/23 03:12:42;;;;;;;101.13;31.70;;;;;;;;;;5094278;28;20044;-66
2022/11/23 03:15:08;;;;;;;99.82;31.90;;;;;;;;;;5093742;28;20177;-67
2022/11/23 03:17:34;;;;;;;55.47;22.45;;;;;;;;;;5094537;28;20024;-70
2022/11/23 03:20:00;;;;;;;93.50;30.75;;;;;;;;;;5094789;28;20024;-66
2022/11/23 03:22:25;;;;;;;91.32;30.83;;;;;;;;;;5094618;28;20147;-67
2022/11/23 03:24:51;;;;;;;50.00;17.35;;;;;;;;;;5094587;28;20016;-67
2022/11/23 03:27:17;;;;;;;104.60;32.40;;;;;;;;;;5094434;28;20469;-67
2022/11/23 03:29:42;;;;;;;63.10;24.10;;;;;;;;;;5094401;28;20111;-68
2022/11/23 03:32:08;;;;;;;92.20;30.83;;;;;;;;;;5094473;28;20081;-68
2022/11/23 03:34:33;;;;;;;67.03;25.00;;;;;;;;;;5094581;28;20111;-77
2022/11/23 03:36:59;;;;;;;100.43;33.38;;;;;;;;;;5094325;28;20487;-76
2022/11/23 03:39:24;;;;;;;99.22;31.55;;;;;;;;;;5094456;28;20031;-79
2022/11/23 03:41:50;;;;;;;120.47;36.33;;;;;;;;;;5094004;28;20028;-79
2022/11/23 03:44:15;;;;;;;44.45;19.17;;;;;;;;;;5094100;28;20366;-78
2022/11/23 03:46:41;;;;;;;84.55;27.05;;;;;;;;;;5094249;28;20043;-77
2022/11/23 03:49:06;;;;;;;65.85;24.77;;;;;;;;;;5094084;28;20039;-77
2022/11/23 03:51:31;;;;;;;109.22;33.28;;;;;;;;;;5094033;28;20031;-76
2022/11/23 03:53:57;;;;;;;61.03;28.80;;;;;;;;;;5093957;28;20115;-75
2022/11/23 03:56:23;;;;;;;114.35;36.50;;;;;;;;;;5093674;28;20020;-69
2022/11/23 03:58:49;;;;;;;118.88;37.38;;;;;;;;;;5093847;28;20032;-70
2022/11/23 04:01:14;;;;;;;119.07;35.78;;;;;;;;;;5093927;28;20380;-67
2022/11/23 04:03:39;;;;;;;97.55;30.45;;;;;;;;;;5093717;28;20031;-67
2022/11/23 04:06:05;;;;;;;111.00;33.10;;;;;;;;;;5093656;28;20038;-67
2022/11/23 04:08:30;;;;;;;104.80;35.70;;;;;;;;;;5093803;28;20039;-67
2022/11/23 04:10:57;;;;;;;119.45;37.67;;;;;;;;;;5093477;28;20016;-68
2022/11/23 04:13:23;;;;;;;101.60;33.00;;;;;;;;;;5093320;28;20097;-67
2022/11/23 04:15:48;;;;;;;114.60;37.10;;;;;;;;;;5093627;28;20035;-69
2022/11/23 04:18:14;;;;;;;99.95;34.33;;;;;;;;;;5093531;28;20103;-69
2022/11/23 04:20:40;;;;;;;73.50;26.40;;;;;;;;;;5093401;28;20424;-68
2022/11/23 04:23:05;;;;;;;94.63;31.70;;;;;;;;;;5093466;28;20103;-68
2022/11/23 04:25:31;;;;;;;119.35;36.90;;;;;;;;;;5093067;28;20035;-66
2022/11/23 04:27:56;;;;;;;96.88;33.17;;;;;;;;;;5093241;28;20024;-69
2022/11/23 04:30:22;;;;;;;112.40;35.75;;;;;;;;;;5093342;28;20036;-69
2022/11/23 04:32:47;;;;;;;64.25;26.08;;;;;;;;;;5093240;28;20357;-68
2022/11/23 04:35:13;;;;;;;82.45;28.90;;;;;;;;;;5093115;28;20036;-71
2022/11/23 04:37:38;;;;;;;74.47;30.02;;;;;;;;;;5093088;28;20031;-66
2022/11/23 04:40:05;;;;;;;84.25;30.88;;;;;;;;;;5092961;28;20028;-69
2022/11/23 04:42:30;;;;;;;78.85;26.80;;;;;;;;;;5093124;28;20032;-67
2022/11/23 04:44:56;;;;;;;127.70;44.65;;;;;;;;;;5093123;28;20030;-67
2022/11/23 04:47:23;;;;;;;97.55;33.60;;;;;;;;;;5093024;28;20036;-67
2022/11/23 04:49:48;;;;;;;68.32;25.60;;;;;;;;;;5058131;28;20370;-66
2022/11/23 04:52:14;;;;;;;102.05;32.40;;;;;;;;;;5092685;28;20113;-68
2022/11/23 04:54:39;;;;;;;91.10;31.92;;;;;;;;;;5092710;28;20032;-68
2022/11/23 04:57:05;;;;;;;84.88;29.77;;;;;;;;;;5092904;28;20099;-68
2022/11/23 04:59:30;;;;;;;114.70;36.38;;;;;;;;;;5092762;28;20085;-72
2022/11/23 05:01:56;;;;;;;97.20;34.95;;;;;;;;;;5092673;28;20077;-70
2022/11/23 05:04:21;;;;;;;108.03;35.85;;;;;;;;;;5092675;28;20036;-67
2022/11/23 05:06:47;;;;;;;46.95;22.00;;;;;;;;;;5092751;28;20062;-67
2022/11/23 05:09:12;;;;;;;68.65;23.70;;;;;;;;;;5092623;28;20461;-67
2022/11/23 05:11:38;;;;;;;92.35;32.08;;;;;;;;;;5092394;28;20019;-72
2022/11/23 05:14:03;;;;;;;98.28;32.55;;;;;;;;;;5092243;28;20542;-69
2022/11/23 05:16:29;;;;;;;92.05;31.90;;;;;;;;;;5092559;28;20028;-69
2022/11/23 05:18:54;;;;;;;98.22;33.35;;;;;;;;;;5092531;28;20020;-67
2022/11/23 05:21:20;;;;;;;94.30;32.03;;;;;;;;;;5092302;28;20381;-68
2022/11/23 05:23:45;;;;;;;97.22;33.28;;;;;;;;;;5092256;28;20031;-71
2022/11/23 05:26:11;;;;;;;100.35;35.80;;;;;;;;;;5092507;28;20024;-71
2022/11/23 05:28:36;;;;;;;70.38;23.08;;;;;;;;;;5092269;28;20023;-67
2022/11/23 05:31:03;;;;;;;95.07;33.53;;;;;;;;;;5092287;28;20032;-70
2022/11/23 05:33:28;;;;;;;96.95;32.53;;;;;;;;;;5092291;28;20024;-71
2022/11/23 05:35:54;;;;;;;102.80;35.38;;;;;;;;;;5092214;28;20484;-69
2022/11/23 05:38:19;;;;;;;102.78;35.88;;;;;;;;;;5091607;28;20024;-68
2022/11/23 05:40:45;;;;;;;97.00;32.35;;;;;;;;;;5092299;28;20477;-67
2022/11/23 05:43:11;;;;;;;72.40;26.52;;;;;;;;;;5092110;28;20020;-69
2022/11/23 05:45:36;;;;;;;104.75;33.15;;;;;;;;;;5092010;28;20491;-68
2022/11/23 05:48:02;;;;;;;87.00;31.27;;;;;;;;;;5092265;28;20032;-70
2022/11/23 05:50:28;;;;;;;83.68;31.52;;;;;;;;;;5092228;28;20020;-68
2022/11/23 05:52:57;;;;;;;61.00;23.08;;;;;;;;;;5091954;28;20039;-76
2022/11/23 05:55:23;;;;;;;90.35;31.33;;;;;;;;;;5092139;28;20024;-78
2022/11/23 05:57:49;;;;;;;86.93;29.55;;;;;;;;;;5092178;28;20020;-77
2022/11/23 06:00:15;;;;;;;97.40;33.42;;;;;;;;;;5092263;28;20031;-75
2022/11/23 06:02:40;;;;;;;68.32;24.75;;;;;;;;;;5092048;28;20530;-77
2022/11/23 06:05:07;;;;;;;85.47;31.85;;;;;;;;;;5091953;28;20119;-75
2022/11/23 06:07:33;;;;;;;82.45;28.85;;;;;;;;;;5091795;28;20477;-77
2022/11/23 06:09:58;;;;;;;58.15;25.13;;;;;;;;;;5092184;28;20035;-75
2022/11/23 06:12:24;;;;;;;46.60;20.30;;;;;;;;;;5091819;28;20032;-75
2022/11/23 06:14:50;;;;;;;57.90;27.83;;;;;;;;;;5091879;28;20040;-72
2022/11/23 06:17:15;;;;;;;92.18;31.13;;;;;;;;;;5091964;28;20381;-75
2022/11/23 06:19:40;;;;;;;85.18;28.88;;;;;;;;;;5091907;28;20115;-70
2022/11/23 06:22:06;;;;;;;91.38;32.67;;;;;;;;;;5091862;28;20039;-70
2022/11/23 06:24:32;;;;;;;71.78;25.90;;;;;;;;;;5092069;28;20383;-75
2022/11/23 06:26:57;;;;;;;65.40;24.50;;;;;;;;;;5091835;28;20107;-70
2022/11/23 06:29:23;;;;;;;55.67;23.50;;;;;;;;;;5091613;28;20048;-68
2022/11/23 06:31:48;;;;;;;74.35;24.48;;;;;;;;;;5091782;28;20163;-65
2022/11/23 06:34:14;;;;;;;65.75;26.00;;;;;;;;;;5091625;28;20028;-71
2022/11/23 06:36:39;;;;;;;80.75;29.83;;;;;;;;;;5091719;28;20027;-70
2022/11/23 06:39:05;;;;;;;60.33;23.75;;;;;;;;;;5091819;28;20147;-67
2022/11/23 06:41:30;;;;;;;80.70;26.60;;;;;;;;;;5091501;28;20070;-67
2022/11/23 06:43:56;;;;;;;88.88;31.45;;;;;;;;;;5091691;28;20039;-69
2022/11/23 06:46:21;;;;;;;99.35;33.38;;;;;;;;;;5091676;28;20024;-66
2022/11/23 06:48:47;;;;;;;83.43;30.30;;;;;;;;;;5091695;28;20059;-68
2022/11/23 06:51:14;;;;;;;93.70;35.35;;;;;;;;;;5094385;28;20024;-77
2022/11/23 06:53:39;;;;;;;102.13;35.95;;;;;;;;;;5095259;28;20032;-76
2022/11/23 06:56:05;;;;;;;84.97;30.95;;;;;;;;;;5095014;28;20116;-76
2022/11/23 06:58:31;;;;;;;105.97;38.85;;;;;;;;;;5095230;28;20119;-74
2022/11/23 07:01:04;;;;;;;109.68;36.72;;;;;;;;;;5095127;28;20024;-72
2022/11/23 07:03:30;;;;;;;91.55;31.85;;;;;;;;;;5094987;28;20084;-74
2022/11/23 07:05:56;;;;;;;96.13;35.75;;;;;;;;;;5094844;28;20051;-70
2022/11/23 07:08:22;;;;;;;58.70;25.70;;;;;;;;;;5095022;28;20161;-69
2022/11/23 07:10:47;;;;;;;92.78;33.90;;;;;;;;;;5094670;28;20024;-73
2022/11/23 07:13:13;;;;;;;63.40;29.83;;;;;;;;;;5094681;28;20118;-75
2022/11/23 07:15:39;;;;;;;60.10;23.80;;;;;;;;;;5094748;28;20024;-71
2022/11/23 07:18:05;;;;;;;90.30;32.42;;;;;;;;;;5094962;28;20461;-75
2022/11/23 07:20:31;;;;;;;76.47;28.02;;;;;;;;;;5094867;28;20414;-73
2022/11/23 07:23:01;;;;;;;88.00;30.83;;;;;;;;;;5094612;28;20035;-67
2022/11/23 07:25:33;;;;;;;83.55;32.00;;;;;;;;;;5094678;28;20107;-70
2022/11/23 07:27:59;;;;;;;32.83;15.27;;;;;;;;;;5094627;28;20466;-76
2022/11/23 07:30:26;;;;;;;48.10;22.60;;;;;;;;;;5094553;28;20077;-77
2022/11/23 07:32:52;;;;;;;81.13;26.40;;;;;;;;;;5094404;28;20052;-75
2022/11/23 07:35:19;;;;;;;85.78;28.75;;;;;;;;;;5094477;28;20457;-76
2022/11/23 07:37:45;;;;;;;75.80;29.73;;;;;;;;;;5094236;28;20055;-70
2022/11/23 07:40:11;;;;;;;99.38;35.47;;;;;;;;;;5094234;28;20059;-66
2022/11/23 07:42:37;;;;;;;82.60;31.02;;;;;;;;;;5094324;28;20032;-75
2022/11/23 07:45:04;;;;;;;89.70;31.30;;;;;;;;;;5094383;28;20097;-77
2022/11/23 07:47:30;;;;;;;89.93;33.80;;;;;;;;;;5093661;28;20028;-75
2022/11/23 07:49:55;;;;;;;85.47;33.97;;;;;;;;;;5094198;28;20465;-75
2022/11/23 07:52:21;;;;;;;75.88;29.60;;;;;;;;;;5094070;28;20031;-76
2022/11/23 07:54:47;;;;;;;77.78;29.58;;;;;;;;;;5094211;28;20370;-78
2022/11/23 07:57:12;;;;;;;84.57;30.42;;;;;;;;;;5094144;28;20035;-77
2022/11/23 07:59:38;;;;;;;53.33;22.73;;;;;;;;;;5094144;28;20385;-77
2022/11/23 08:02:04;;;;;;;80.28;30.38;;;;;;;;;;5093076;28;20027;-76
2022/11/23 08:04:29;;;;;;;74.40;28.30;;;;;;;;;;5093974;28;20032;-76
2022/11/23 08:06:55;;;;;;;84.07;30.92;;;;;;;;;;5093855;28;20052;-73
2022/11/23 08:09:21;;;;;;;67.13;25.75;;;;;;;;;;5093810;28;20111;-77
2022/11/23 08:11:46;;;;;;;48.95;20.95;;;;;;;;;;5089906;28;20090;-76
2022/11/23 08:14:12;;;;;;;73.65;27.05;;;;;;;;;;5077095;28;20028;-76
2022/11/23 08:16:37;;;;;;;84.80;26.92;;;;;;;;;;5076414;28;20017;-76
2022/11/23 08:19:03;;;;;;;53.72;22.48;;;;;;;;;;5077422;28;20065;-76
2022/11/23 08:21:29;;;;;;;92.30;31.80;;;;;;;;;;5077014;28;20054;-77
2022/11/23 08:23:54;;;;;;;84.97;32.13;;;;;;;;;;5076835;28;20021;-76
2022/11/23 08:26:20;;;;;;;71.78;27.05;;;;;;;;;;5081542;28;20377;-77
2022/11/23 08:28:45;;;;;;;98.05;33.13;;;;;;;;;;5097208;28;20016;-72
2022/11/23 08:31:11;;;;;;;101.30;31.23;;;;;;;;;;5099888;28;20048;-74
2022/11/23 08:33:37;;;;;;;102.88;35.25;;;;;;;;;;5094028;28;20392;-67
2022/11/23 08:36:04;;;;;;;90.88;28.65;;;;;;;;;;5075306;28;20035;-79
2022/11/23 08:38:30;;;;;;;97.35;34.10;;;;;;;;;;5093493;28;20030;-70
2022/11/23 08:41:00;;;;;;;100.47;33.28;;;;;;;;;;5093364;28;20447;-75
2022/11/23 08:43:26;;;;;;;88.10;33.13;;;;;;;;;;5093330;28;20145;-76
2022/11/23 08:45:56;;;;;;;86.25;30.90;;;;;;;;;;5093117;28;20051;-76
2022/11/23 08:48:21;;;;;;;91.30;32.10;;;;;;;;;;5093080;28;20115;-77
2022/11/23 08:50:47;;;;;;;97.85;34.00;;;;;;;;;;5093313;28;20111;-75
2022/11/23 08:53:12;;;;;;;82.38;28.98;;;;;;;;;;5093132;28;20069;-76
2022/11/23 08:55:38;;;;;;;99.38;33.88;;;;;;;;;;5092886;28;20032;-77
2022/11/23 08:58:03;;;;;;;88.78;33.05;;;;;;;;;;5093089;28;20032;-73
2022/11/23 09:00:29;;;;;;;86.88;31.67;;;;;;;;;;5092769;28;20063;-75
2022/11/23 09:02:58;;;;;;;71.90;28.85;;;;;;;;;;5092874;28;20103;-76
2022/11/23 09:05:25;;;;;;;84.57;31.83;;;;;;;;;;5093881;28;20027;-77
2022/11/23 09:07:50;;;;;;;80.75;28.20;;;;;;;;;;5092766;28;20056;-70
2022/11/23 09:10:16;;;;;;;78.70;29.60;;;;;;;;;;5093778;28;20123;-70
2022/11/23 09:12:42;;;;;;;46.55;20.25;;;;;;;;;;5092186;28;20036;-77
2022/11/23 09:15:08;;;;;;;85.80;31.75;;;;;;;;;;5093242;28;20057;-74
2022/11/23 09:17:34;;;;;;;81.28;31.17;;;;;;;;;;5092685;28;20463;-75
2022/11/23 09:19:59;;;;;;;75.60;30.75;;;;;;;;;;5092879;28;20158;-73
2022/11/23 09:22:25;;;;;;;79.13;29.88;;;;;;;;;;5092822;28;20051;-76
2022/11/23 09:24:51;;;;;;;48.55;19.05;;;;;;;;;;5092732;28;20051;-71
2022/11/23 09:27:17;;;;;;;70.32;30.30;;;;;;;;;;5090417;28;20032;-70
2022/11/23 09:29:42;;;;;;;75.03;28.63;;;;;;;;;;5090526;28;20028;-69
2022/11/23 09:32:08;;;;;;;83.32;30.88;;;;;;;;;;5092016;28;20377;-68
2022/11/23 09:34:33;;;;;;;75.97;26.65;;;;;;;;;;5092062;28;20024;-75
2022/11/23 09:36:59;;;;;;;85.53;30.13;;;;;;;;;;5102788;28;20123;-74
2022/11/23 09:39:24;;;;;;;77.35;30.52;;;;;;;;;;5113185;28;20076;-73
2022/11/23 09:42:12;;;;;;;83.78;29.77;;;;;;;;;;5112707;28;20028;-75
2022/11/23 09:44:37;;;;;;;68.47;26.52;;;;;;;;;;5112687;28;20027;-68
2022/11/23 09:47:14;;;;;;;58.97;25.55;;;;;;;;;;5112510;28;20020;-76
2022/11/23 09:49:54;;;;;;;50.33;21.77;;;;;;;;;;5113281;28;20031;-67
2022/11/23 09:52:21;;;;;;;;;;;;;;;;;;5113048;28;20193;-69
2022/11/23 09:54:49;;;;;;;68.70;27.35;;;;;;;;;;5093520;28;20339;-69
2022/11/23 09:57:20;;;;;;;62.97;26.08;;;;;;;;;;5095039;28;20036;-75
2022/11/23 09:59:55;;;;;;;71.97;28.83;;;;;;;;;;5093631;28;20028;-69
2022/11/23 10:02:23;;;;;;;46.85;20.55;;;;;;;;;;5093712;28;20488;-71
2022/11/23 10:04:51;;;;;;;67.40;27.42;;;;;;;;;;5088730;28;20024;-68
2022/11/23 10:07:16;;;;;;;54.05;22.05;;;;;;;;;;5077233;28;20451;-67
2022/11/23 10:10:03;;;;;;;54.78;23.35;;;;;;;;;;5093850;28;20020;-70
2022/11/23 10:12:53;;;;;;;59.67;26.20;;;;;;;;;;5091985;28;20084;-71
2022/11/23 10:15:53;;;;;;;58.70;22.97;;;;;;;;;;5076144;28;20042;-72
2022/11/23 10:18:24;;;;;;;69.93;25.92;;;;;;;;;;5090719;28;20641;-71
2022/11/23 10:21:12;;;;;;;54.83;24.65;;;;;;;;;;5093621;28;20427;-69
2022/11/23 10:24:05;;;;;;;61.33;25.08;;;;;;;;;;5095059;28;20039;-69
2022/11/23 10:26:39;;;;;;;58.80;25.05;;;;;;;;;;5096915;28;20023;-68
2022/11/23 10:29:31;;;;;;;63.30;26.35;;;;;;;;;;5097227;28;20024;-74
2022/11/23 10:31:57;;;;;;;57.55;24.55;;;;;;;;;;5091726;28;20106;-76
2022/11/23 10:34:39;;;;;;;53.65;24.48;;;;;;;;;;5076103;28;20029;-77
2022/11/23 10:37:10;;;;;;;56.00;24.20;;;;;;;;;;5085181;28;20024;-78
2022/11/23 10:39:36;;;;;;;59.45;25.50;;;;;;;;;;5096076;28;20473;-78
2022/11/23 10:42:16;;;;;;;54.92;24.08;;;;;;;;;;5095835;28;20035;-77
2022/11/23 10:44:45;;;;;;;56.50;25.25;;;;;;;;;;5079940;28;20040;-77
2022/11/23 10:47:36;;;;;;;52.30;24.90;;;;;;;;;;5098856;28;20092;-77
2022/11/23 10:50:02;;;;;;;48.58;21.48;;;;;;;;;;5096688;28;20024;-78
2022/11/23 10:52:32;;;;;;;45.70;20.05;;;;;;;;;;5097155;28;20020;-77
2022/11/23 10:55:00;;;;;;;47.63;21.00;;;;;;;;;;5096529;28;20461;-77
2022/11/23 10:57:41;;;;;;;54.17;24.35;;;;;;;;;;5097799;28;20036;-78
2022/11/23 11:00:13;;;;;;;51.25;20.13;;;;;;;;;;5080439;28;20020;-78
2022/11/23 11:03:02;;;;;;;37.65;17.63;;;;;;;;;;5096472;28;20032;-77
2022/11/23 11:05:35;;;;;;;58.20;23.40;;;;;;;;;;5095576;28;20024;-75
2022/11/23 11:08:12;;;;;;;56.90;22.98;;;;;;;;;;5095494;28;20435;-78
2022/11/23 11:11:24;;;;;;;44.65;19.45;;;;;;;;;;5096249;28;20457;-76
2022/11/23 11:13:50;;;;;;;59.80;24.58;;;;;;;;;;4998174;28;20054;-75
2022/11/23 11:16:35;;;;;;;69.35;27.65;;;;;;;;;;4995956;28;20065;-74
2022/11/23 11:19:34;;;;;;;74.03;28.95;;;;;;;;;;4993608;28;20170;-76
2022/11/23 11:22:03;;;;;;;57.00;24.00;;;;;;;;;;4935731;29;20584;-76
2022/11/23 11:24:37;;;;;;;59.53;25.52;;;;;;;;;;4935491;29;20051;-77
2022/11/23 11:27:10;;;;;;;55.97;23.10;;;;;;;;;;4935043;29;20075;-74
2022/11/23 11:29:46;;;;;;;49.15;18.63;;;;;;;;;;4935246;29;20036;-76
2022/11/23 11:32:27;;;;;;;65.40;26.70;;;;;;;;;;4935736;29;20048;-73
2022/11/23 11:35:10;;;;;;;68.32;26.08;;;;;;;;;;4934758;29;20031;-74
2022/11/23 11:37:41;;;;;;;33.85;15.80;;;;;;;;;;4934876;29;20036;-71
2022/11/23 11:40:18;;;;;;;66.93;23.50;;;;;;;;;;4935105;29;20164;-71
2022/11/23 11:42:54;;;;;;;48.20;20.58;;;;;;;;;;4935030;29;20493;-73
2022/11/23 11:45:33;;;;;;;57.72;26.23;;;;;;;;;;4984916;28;20550;-71
2022/11/23 11:48:01;;;;;;;73.45;27.90;;;;;;;;;;4996323;28;20577;-67
2022/11/23 11:50:35;;;;;;;67.63;26.02;;;;;;;;;;4992425;28;20031;-71
2022/11/23 11:53:11;;;;;;;71.03;27.58;;;;;;;;;;4992593;28;20026;-71
2022/11/23 11:55:45;;;;;;;56.00;22.30;;;;;;;;;;4992401;28;20061;-72
2022/11/23 11:58:14;;;;;;;64.20;25.98;;;;;;;;;;5054338;28;20085;-76
2022/11/23 12:00:41;;;;;;;71.45;26.38;;;;;;;;;;5056341;28;20029;-68
2022/11/23 12:03:33;;;;;;;77.20;28.55;;;;;;;;;;5073896;28;20356;-71
2022/11/23 12:06:10;;;;;;;73.70;28.65;;;;;;;;;;5073835;28;20474;-68
2022/11/23 12:08:54;;;;;;;54.50;22.90;;;;;;;;;;5073687;28;20477;-74
2022/11/23 12:11:19;;;;;;;51.40;21.60;;;;;;;;;;5073831;28;20111;-68
2022/11/23 12:13:45;;;;;;;38.53;18.83;;;;;;;;;;5086296;28;20597;-68
2022/11/23 12:16:43;;;;;;;57.15;23.90;;;;;;;;;;5093668;28;20123;-69
2022/11/23 12:19:35;;;;;;;41.25;19.73;;;;;;;;;;5082637;28;20039;-74
2022/11/23 12:22:22;;;;;;;59.10;22.75;;;;;;;;;;5095349;28;20497;-71
2022/11/23 12:25:13;;;;;;;58.67;24.13;;;;;;;;;;5093438;28;20031;-73
2022/11/23 12:27:57;;;;;;;66.43;22.67;;;;;;;;;;5093449;28;20073;-72
2022/11/23 12:30:28;;;;;;;73.97;27.75;;;;;;;;;;5093507;28;20026;-72
2022/11/23 12:33:02;;;;;;;64.22;24.52;;;;;;;;;;5093310;28;20103;-76
2022/11/23 12:36:01;;;;;;;67.93;27.00;;;;;;;;;;5093336;28;20060;-70
2022/11/23 12:38:41;;;;;;;34.47;15.32;;;;;;;;;;5093229;28;20032;-76
2022/11/23 12:41:20;;;;;;;71.17;27.73;;;;;;;;;;5093269;28;20035;-74
2022/11/23 12:44:11;;;;;;;31.93;14.87;;;;;;;;;;5093216;28;20257;-74
2022/11/23 12:46:44;;;;;;;45.55;19.88;;;;;;;;;;5093300;28;20024;-77
2022/11/23 12:49:21;;;;;;;62.80;25.95;;;;;;;;;;5093065;28;20520;-74
2022/11/23 12:51:54;;;;;;;71.18;27.73;;;;;;;;;;5092621;28;20032;-77
2022/11/23 12:54:50;;;;;;;69.28;28.58;;;;;;;;;;5093194;28;20059;-77
2022/11/23 12:57:30;;;;;;;58.60;25.33;;;;;;;;;;5093086;28;20107;-74
2022/11/23 13:00:06;;;;;;;;;;;;;;;;;;5093448;28;20027;-78
2022/11/23 13:02:52;;;;;;;61.45;24.27;;;;;;;;;;5092800;28;19912;-75
2022/11/23 13:05:30;;;;;;;55.78;25.58;;;;;;;;;;5092769;28;20093;-77
2022/11/23 13:08:16;;;;;;;60.60;27.33;;;;;;;;;;5092638;28;20035;-77
2022/11/23 13:10:47;;;;;;;33.58;14.65;;;;;;;;;;5074739;28;20032;-78
2022/11/23 13:13:18;;;;;;;64.05;24.63;;;;;;;;;;5092451;28;20040;-75
2022/11/23 13:16:01;;;;;;;40.05;19.30;;;;;;;;;;5097724;28;20032;-76
2022/11/23 13:18:50;;;;;;;35.60;16.45;;;;;;;;;;5086067;28;20577;-77
2022/11/23 13:21:26;;;;;;;41.70;19.40;;;;;;;;;;5092334;28;20027;-76
2022/11/23 13:23:52;;;;;;;61.70;25.17;;;;;;;;;;5085402;28;20035;-78
2022/11/23 13:26:18;;;;;;;55.72;21.77;;;;;;;;;;5090075;28;20028;-77
2022/11/23 13:28:49;;;;;;;65.53;28.48;;;;;;;;;;5092519;28;20082;-76
2022/11/23 13:31:14;;;;;;;64.32;27.08;;;;;;;;;;5092385;28;20477;-71
2022/11/23 13:33:41;;;;;;;58.00;25.27;;;;;;;;;;5092558;28;20020;-69
2022/11/23 13:36:12;;;;;;;64.57;26.98;;;;;;;;;;5089755;28;20032;-77
2022/11/23 13:38:42;;;;;;;58.47;25.98;;;;;;;;;;5088216;28;20391;-77
2022/11/23 13:41:32;;;;;;;55.65;21.98;;;;;;;;;;5092159;28;20045;-71
2022/11/23 13:44:10;;;;;;;65.32;27.30;;;;;;;;;;5071628;28;20422;-71
2022/11/23 13:46:36;;;;;;;62.67;25.65;;;;;;;;;;5091251;28;20473;-71
2022/11/23 13:49:01;;;;;;;79.30;31.50;;;;;;;;;;5091209;28;20020;-73
2022/11/23 13:51:30;;;;;;;58.78;21.90;;;;;;;;;;5091967;28;20040;-67
2022/11/23 13:54:19;;;;;;;71.82;29.95;;;;;;;;;;5073843;28;20024;-75
2022/11/23 13:56:46;;;;;;;65.28;24.98;;;;;;;;;;5092470;28;20048;-69
2022/11/23 13:59:23;;;;;;;62.90;27.98;;;;;;;;;;5093671;28;20035;-68
2022/11/23 14:02:26;;;;;;;66.35;29.63;;;;;;;;;;5096263;28;20111;-68
2022/11/23 14:05:10;;;;;;;74.22;30.65;;;;;;;;;;5095998;28;20525;-68
2022/11/23 14:07:42;;;;;;;67.50;29.80;;;;;;;;;;5090448;28;20032;-76
2022/11/23 14:10:21;;;;;;;87.82;32.13;;;;;;;;;;5076533;28;20036;-76
2022/11/23 14:13:02;;;;;;;78.05;31.58;;;;;;;;;;5080327;28;20129;-76
2022/11/23 14:15:43;;;;;;;77.10;30.13;;;;;;;;;;5096017;28;20477;-76
2022/11/23 14:18:34;;;;;;;78.53;32.03;;;;;;;;;;5095888;28;20068;-76
2022/11/23 14:21:09;;;;;;;83.63;31.27;;;;;;;;;;5095612;28;20111;-76
2022/11/23 14:23:53;;;;;;;48.42;21.85;;;;;;;;;;5095978;28;20020;-76
2022/11/23 14:26:18;;;;;;;74.25;29.42;;;;;;;;;;5095792;28;20031;-73
2022/11/23 14:29:02;;;;;;;50.45;23.25;;;;;;;;;;5095773;28;20024;-76
2022/11/23 14:31:38;;;;;;;59.92;25.17;;;;;;;;;;5095745;28;20158;-78